virtualACA

Welcome To Vancouver International Airport CYVR

Hub Roster

Pilot Domicile Rank
Brian Kozushka - ACA1102CanadaChief Pilot
Jean-Michel Lazare - ACA2310FranceChief Pilot
Celso Silva - ACA3173BrazilSenior Captain
Robert Zolliecoffer - ACA3242United StatesNew Hire
Julien Chabbey - ACA3244SwitzerlandNew Hire

Current Vatsim Weather


CYVR 190800Z 06005KT 12SM -RA FEW003 BKN006 OVC039 11/10 A3000 RMK SF1ST4SC3 SLP162
Vancouver International Airport